This is the latest recevied weather packets stored in our database for station/object JH5EWP-13. If no packets are shown the sender has not sent any weather packets the latest 10 day(s).
| Time | Temp. | Humidity | Pressure | Rain* | Wind** | Luminosity | Snow |
|---|---|---|---|---|---|---|---|
| 1777824525 | 16.67° C | 79% | 995.7 hPa | 0 mm | - | - | - |
| 1777823625 | 16.67° C | 80% | 995.6 hPa | 0 mm | - | - | - |
| 1777822726 | 16.67° C | 81% | 995.3 hPa | 0 mm | - | - | - |
| 1777821825 | 16.67° C | 81% | 995.3 hPa | 0 mm | - | - | - |
| 1777820925 | 16.67° C | 83% | 995.3 hPa | 0 mm | - | - | - |
| 1777820025 | 16.67° C | 85% | 995.2 hPa | 0 mm | - | - | - |
| 1777819125 | 16.67° C | 87% | 995.1 hPa | 0 mm | - | - | - |
| 1777818225 | 16.67° C | 88% | 994.9 hPa | 0 mm | - | - | - |
| 1777817325 | 16.67° C | 88% | 994.9 hPa | 0.25 mm | - | - | - |
| 1777816425 | 16.67° C | 88% | 994.8 hPa | 0.25 mm | - | - | - |
| 1777815524 | 16.67° C | 88% | 994.8 hPa | 0.25 mm | - | - | - |
| 1777814624 | 16.67° C | 88% | 994.9 hPa | 0.25 mm | - | - | - |
| 1777813726 | 16.67° C | 88% | 994.7 hPa | 0.25 mm | - | - | - |
| 1777812826 | 17.22° C | 89% | 994.5 hPa | 0.51 mm | - | - | - |
| 1777811926 | 17.22° C | 90% | 994 hPa | 0.51 mm | - | - | - |
| 1777811025 | 17.78° C | 87% | 994 hPa | 0.76 mm | - | - | - |
| 1777810126 | 18.33° C | 87% | 994 hPa | 0.76 mm | - | - | - |
| 1777809224 | 19.44° C | 88% | 993.7 hPa | 2.03 mm | - | - | - |
| 1777808326 | 19.44° C | 88% | 993.3 hPa | 3.56 mm | - | - | - |
| 1777807426 | 19.44° C | 87% | 992.9 hPa | 3.81 mm | - | - | - |
| 1777806525 | 20° C | 87% | 992.4 hPa | 4.57 mm | - | - | - |
| 1777805625 | 20° C | 86% | 992.3 hPa | 4.06 mm | - | - | - |
| 1777804724 | 19.44° C | 84% | 992.4 hPa | 3.05 mm | - | - | - |
| 1777803826 | 19.44° C | 83% | 992.2 hPa | 2.79 mm | - | - | - |
| 1777802926 | 19.44° C | 82% | 992.2 hPa | 4.06 mm | - | - | - |
* Rain latest hour (hover to see other rain measurements)
** Current wind speed in m/s (hover to see current wind gust speed)